Quinsam — VY6800 — position and weather

sailwx.info

Track history (hours):
 
Tides and Currents Weather Stations Pressure Air Temp Water Temp Dewpoint Dewpoint Depression Visibility Wind Speed Wind Dir Waves Ship Positions

Quinsam

Last reported at 2015-Jan-27 11:12 UTC. Time now 2015-Jan-27 12:32 UTC.
Position N 49°11' W 123°52'.

Length 88 m; draft 1.5 m.

Type: Ship. MMSI: 316001266.

Date/timePositionNaut miles runAvg speedWind from/ knotsBaromVisibWave heightAir tempDewpointWater temp
2015-Jan-27 11:12N 49°11' W 123°52'0 0.0
2015-Jan-27 09:24N 49°11' W 123°52'0 0.0
2015-Jan-27 07:30N 49°11' W 123°52'0 0.0
2015-Jan-27 06:29N 49°11' W 123°52'1 0.7
2015-Jan-27 04:33N 49°11' W 123°53'0 0.3
2015-Jan-27 03:33N 49°11' W 123°53'1 1.0
2015-Jan-27 02:32N 49°11' W 123°52'0 0.2
2015-Jan-27 01:17N 49°11' W 123°52'1 1.6
2015-Jan-27 00:33N 49°10' W 123°54'1 1.4
2015-Jan-26 23:30N 49°10' W 123°56'3 2.3
2015-Jan-26 22:13N 49°11' W 123°52'3 4.4
2015-Jan-26 21:33N 49°10' W 123°56'0 0.0
2015-Jan-26 20:24N 49°10' W 123°56'2 2.0
2015-Jan-26 19:33N 49°11' W 123°53'2 1.7
2015-Jan-26 18:33N 49°10' W 123°56'1 0.6
2015-Jan-26 17:33N 49°10' W 123°55'2 2.1
2015-Jan-26 16:32N 49°11' W 123°52'0 0.2
2015-Jan-26 15:29N 49°11' W 123°52'1 0.6
2015-Jan-26 14:33N 49°11' W 123°52'0 0.0
2015-Jan-26 13:33N 49°11' W 123°52'0 0.5
2015-Jan-26 12:33N 49°11' W 123°52'0 0.0
2015-Jan-26 11:33N 49°11' W 123°52'0 0.0
2015-Jan-26 09:27N 49°11' W 123°52'0 0.0
2015-Jan-26 08:33N 49°11' W 123°52'3 1.3
2015-Jan-26 06:32N 49°10' W 123°55'1 0.6
2015-Jan-26 04:33N 49°10' W 123°54'0 0.5
2015-Jan-26 03:33N 49°11' W 123°53'0 0.5
2015-Jan-26 02:32N 49°11' W 123°52'1 0.5
2015-Jan-26 01:28N 49°11' W 123°52'1 1.3
2015-Jan-26 00:33N 49°10' W 123°53'2 1.6
2015-Jan-25 23:32N 49°10' W 123°56'1 0.5
2015-Jan-25 21:33N 49°10' W 123°54'2 1.6
2015-Jan-25 20:32N 49°11' W 123°52'0 0.3
2015-Jan-25 19:32N 49°11' W 123°52'3 2.9
2015-Jan-25 18:32N 49°10' W 123°56'2 2.3
2015-Jan-25 17:32N 49°11' W 123°52'0 0.3
2015-Jan-25 16:18N 49°11' W 123°53'2 2.5
2015-Jan-25 15:31N 49°10' W 123°56'2 0.3
2015-Jan-25 07:21N 49°11' W 123°52'1 0.5
2015-Jan-25 06:18N 49°11' W 123°53'0 0.1
2015-Jan-25 04:33N 49°10' W 123°53'0 0.2
2015-Jan-25 03:31N 49°11' W 123°54'1 1.0
2015-Jan-25 02:30N 49°11' W 123°52'0 0.4
2015-Jan-25 01:32N 49°11' W 123°52'1 0.9
2015-Jan-25 00:31N 49°11' W 123°53'2 2.0
2015-Jan-24 23:33N 49°10' W 123°56'3 2.8
2015-Jan-24 22:31N 49°11' W 123°52'2 2.4
2015-Jan-24 21:32N 49°10' W 123°55'1 1.2
2015-Jan-24 20:28N 49°11' W 123°53'1 1.0
2015-Jan-24 19:26N 49°11' W 123°52'3 2.3
2015-Jan-24 18:11N 49°10' W 123°56'2 3.4
2015-Jan-24 17:31N 49°11' W 123°53'0 0.4
2015-Jan-24 16:19N 49°11' W 123°53'0 0.0
2015-Jan-24 15:15N 49°11' W 123°53'1 0.1
2015-Jan-24 07:26N 49°11' W 123°52'0 0.2
2015-Jan-24 06:24N 49°11' W 123°52'1 0.8
2015-Jan-24 04:32N 49°10' W 123°54'0 0.4
2015-Jan-24 03:33N 49°10' W 123°53'0 0.4
2015-Jan-24 02:25N 49°11' W 123°53'0 0.0
2015-Jan-24 01:18N 49°11' W 123°53'0 0.4
2015-Jan-24 00:30N 49°11' W 123°52'2 2.6
2015-Jan-23 23:33N 49°10' W 123°56'3 2.2
2015-Jan-23 22:14N 49°11' W 123°52'3 4.1
2015-Jan-23 21:32N 49°10' W 123°56'0 0.0
2015-Jan-23 20:24N 49°10' W 123°56'1 1.7
2015-Jan-23 19:33N 49°11' W 123°54'1 1.4
2015-Jan-23 18:30N 49°10' W 123°56'0 0.4
2015-Jan-23 17:33N 49°10' W 123°55'2 1.6
2015-Jan-23 16:29N 49°11' W 123°53'1 0.5
2015-Jan-23 15:21N 49°11' W 123°52'0 0.3
2015-Jan-23 14:14N 49°11' W 123°53'1 0.9
2015-Jan-23 13:32N 49°11' W 123°52'0 0.0
2015-Jan-23 11:29N 49°11' W 123°52'1 0.3
2015-Jan-23 07:16N 49°10' W 123°54'0 0.3
2015-Jan-23 06:17N 49°11' W 123°53'0 0.2
2015-Jan-23 04:31N 49°11' W 123°54'0 0.1
2015-Jan-23 03:31N 49°10' W 123°54'0 0.1
2015-Jan-23 02:22N 49°10' W 123°54'1 0.7
2015-Jan-23 01:20N 49°11' W 123°53'0 0.1
2015-Jan-23 00:32N 49°11' W 123°53'2 2.0
2015-Jan-22 23:29N 49°10' W 123°56'2 1.8
2015-Jan-22 22:06N 49°11' W 123°52'2 4.0
2015-Jan-22 21:30N 49°10' W 123°56'0 0.1
2015-Jan-22 20:19N 49°10' W 123°56'1 1.2
2015-Jan-22 19:34N 49°10' W 123°54'1 0.9
2015-Jan-22 18:33N 49°10' W 123°56'0 0.2
2015-Jan-22 17:32N 49°10' W 123°56'1 1.2
2015-Jan-22 16:33N 49°10' W 123°54'1 1.4
2015-Jan-22 15:33N 49°11' W 123°52'0 0.1
2015-Jan-22 14:22N 49°11' W 123°52'0 0.4
2015-Jan-22 13:33N 49°11' W 123°52'1 0.1
2015-Jan-22 07:19N 49°11' W 123°53'2 2.8
2015-Jan-22 06:33N 49°10' W 123°56'3 2.2
2015-Jan-22 05:14N 49°11' W 123°52'1 1.9
2015-Jan-22 04:34N 49°11' W 123°53'0 0.1
2015-Jan-22 03:34N 49°11' W 123°53'1 0.6
2015-Jan-22 02:30N 49°11' W 123°52'0 0.3
2015-Jan-22 01:23N 49°11' W 123°53'1 0.8
2015-Jan-22 00:33N 49°11' W 123°52'3 2.7
2015-Jan-21 23:32N 49°10' W 123°56'2 1.5
2015-Jan-21 22:04N 49°11' W 123°53'2 3.4
2015-Jan-21 21:34N 49°10' W 123°55'0 0.4
2015-Jan-21 20:21N 49°10' W 123°56'2 2.3
2015-Jan-21 19:33N 49°11' W 123°53'2 1.6
2015-Jan-21 18:26N 49°10' W 123°56'0 0.0
2015-Jan-21 17:16N 49°10' W 123°56'3 3.6
2015-Jan-21 16:32N 49°11' W 123°52'0 0.3
2015-Jan-21 15:31N 49°11' W 123°52'0 0.0
2015-Jan-21 14:23N 49°11' W 123°52'0 0.0
2015-Jan-21 13:27N 49°11' W 123°52'0 0.0
2015-Jan-21 11:15N 49°11' W 123°52'0 0.0
2015-Jan-21 10:21N 49°11' W 123°52'1 0.2
2015-Jan-21 07:21N 49°11' W 123°52'1 0.6
2015-Jan-21 06:28N 49°11' W 123°52'0 0.0
2015-Jan-21 05:33N 49°11' W 123°52'1 1.3
2015-Jan-21 04:33N 49°10' W 123°54'0 0.3
2015-Jan-21 03:34N 49°11' W 123°53'0 0.4
2015-Jan-21 02:29N 49°11' W 123°53'1 0.7
2015-Jan-21 01:32N 49°11' W 123°52'1 1.1
2015-Jan-21 00:33N 49°11' W 123°53'2 1.8
2015-Jan-20 23:30N 49°10' W 123°56'3 2.3
2015-Jan-20 22:13N 49°11' W 123°52'3 4.3
2015-Jan-20 21:33N 49°10' W 123°56'0 0.0
2015-Jan-20 20:30N 49°10' W 123°56'2 1.9
2015-Jan-20 19:33N 49°11' W 123°53'2 1.4
2015-Jan-20 18:28N 49°10' W 123°56'0 0.2
2015-Jan-20 17:23N 49°10' W 123°56'1 1.4
2015-Jan-20 16:33N 49°10' W 123°54'1 1.3
2015-Jan-20 15:31N 49°11' W 123°52'0 0.4
2015-Jan-20 14:24N 49°11' W 123°52'0 0.0
2015-Jan-20 13:28N 49°11' W 123°52'0 0.0
2015-Jan-20 07:30N 49°11' W 123°52'0 0.0
2015-Jan-20 06:33N 49°11' W 123°52'0 0.0
2015-Jan-20 05:33N 49°11' W 123°52'1 1.5
2015-Jan-20 04:32N 49°10' W 123°54'0 0.2
2015-Jan-20 03:32N 49°10' W 123°53'1 1.2
2015-Jan-20 02:33N 49°11' W 123°52'1 0.5
2015-Jan-20 01:23N 49°11' W 123°53'0 0.4
2015-Jan-20 00:34N 49°11' W 123°52'3 2.5
2015-Jan-19 23:32N 49°10' W 123°56'3 2.4
2015-Jan-19 22:18N 49°11' W 123°52'3 3.9
2015-Jan-19 21:33N 49°10' W 123°56'0 0.0
2015-Jan-19 20:32N 49°10' W 123°56'2 1.5
2015-Jan-19 19:33N 49°10' W 123°54'1 1.3
2015-Jan-19 18:27N 49°10' W 123°56'0 0.3
2015-Jan-19 17:33N 49°10' W 123°55'2 1.8
2015-Jan-19 16:31N 49°11' W 123°53'1 0.8
2015-Jan-19 15:33N 49°11' W 123°52'0 0.0
2015-Jan-19 14:23N 49°11' W 123°52'0 0.0
2015-Jan-19 13:31N 49°11' W 123°52'0 0.0
2015-Jan-19 10:24N 49°11' W 123°52'3 0.7
2015-Jan-19 06:33N 49°10' W 123°55'3 2.5
2015-Jan-19 05:33N 49°11' W 123°52'1 1.3
2015-Jan-19 04:33N 49°10' W 123°54'0 0.3
2015-Jan-19 03:33N 49°11' W 123°53'1 0.6
2015-Jan-19 02:31N 49°11' W 123°52'0 0.0
2015-Jan-19 01:20N 49°11' W 123°52'1 1.0
2015-Jan-19 00:33N 49°10' W 123°53'2 1.5
2015-Jan-18 23:31N 49°10' W 123°56'1 0.6
2015-Jan-18 21:33N 49°10' W 123°54'1 1.4
2015-Jan-18 20:33N 49°11' W 123°52'0 0.3
2015-Jan-18 19:30N 49°11' W 123°52'3 2.6
2015-Jan-18 18:24N 49°10' W 123°56'2 2.4
2015-Jan-18 17:31N 49°11' W 123°53'1 0.8
2015-Jan-18 16:28N 49°11' W 123°52'3 3.0
2015-Jan-18 15:30N 49°10' W 123°56'3 0.3
2015-Jan-18 07:24N 49°11' W 123°52'1 0.6
2015-Jan-18 06:20N 49°11' W 123°53'0 0.2
2015-Jan-18 04:33N 49°11' W 123°53'0 0.1
2015-Jan-18 03:31N 49°11' W 123°53'1 0.7
2015-Jan-18 02:27N 49°11' W 123°52'0 0.5
2015-Jan-18 01:30N 49°11' W 123°52'1 1.1
2015-Jan-18 00:33N 49°10' W 123°53'2 1.8
2015-Jan-17 23:31N 49°10' W 123°56'3 2.2
2015-Jan-17 22:12N 49°11' W 123°52'2 2.9
2015-Jan-17 21:33N 49°10' W 123°54'1 1.2
2015-Jan-17 20:33N 49°11' W 123°53'1 0.5
2015-Jan-17 19:30N 49°11' W 123°52'3 2.9
2015-Jan-17 18:32N 49°10' W 123°56'2 2.1
2015-Jan-17 17:33N 49°11' W 123°53'1 0.7
2015-Jan-17 16:29N 49°11' W 123°52'1 0.5
2015-Jan-17 15:20N 49°11' W 123°53'1 0.7
2015-Jan-17 14:33N 49°11' W 123°52'0 0.1
2015-Jan-17 12:03N 49°11' W 123°52'  
Track history (hours):
 
Tides and Currents Weather Stations Pressure Air Temp Water Temp Dewpoint Dewpoint Depression Visibility Wind Speed Wind Dir Waves Ship Positions

Quinsam

Last reported at 2015-Jan-27 11:12 UTC. Time now 2015-Jan-27 12:32 UTC.
Position N 49°11' W 123°52'.

Length 88 m; draft 1.5 m.

Type: Ship. MMSI: 316001266.

Date/timePositionNaut miles runAvg speedWind from/ knotsBaromVisibWave heightAir tempDewpointWater temp
2015-Jan-27 11:12N 49°11' W 123°52'0 0.0
2015-Jan-27 09:24N 49°11' W 123°52'0 0.0
2015-Jan-27 07:30N 49°11' W 123°52'0 0.0
2015-Jan-27 06:29N 49°11' W 123°52'1 0.7
2015-Jan-27 04:33N 49°11' W 123°53'0 0.3
2015-Jan-27 03:33N 49°11' W 123°53'1 1.0
2015-Jan-27 02:32N 49°11' W 123°52'0 0.2
2015-Jan-27 01:17N 49°11' W 123°52'1 1.6
2015-Jan-27 00:33N 49°10' W 123°54'1 1.4
2015-Jan-26 23:30N 49°10' W 123°56'3 2.3
2015-Jan-26 22:13N 49°11' W 123°52'3 4.4
2015-Jan-26 21:33N 49°10' W 123°56'0 0.0
2015-Jan-26 20:24N 49°10' W 123°56'2 2.0
2015-Jan-26 19:33N 49°11' W 123°53'2 1.7
2015-Jan-26 18:33N 49°10' W 123°56'1 0.6
2015-Jan-26 17:33N 49°10' W 123°55'2 2.1
2015-Jan-26 16:32N 49°11' W 123°52'0 0.2
2015-Jan-26 15:29N 49°11' W 123°52'1 0.6
2015-Jan-26 14:33N 49°11' W 123°52'0 0.0
2015-Jan-26 13:33N 49°11' W 123°52'0 0.5
2015-Jan-26 12:33N 49°11' W 123°52'0 0.0
2015-Jan-26 11:33N 49°11' W 123°52'0 0.0
2015-Jan-26 09:27N 49°11' W 123°52'0 0.0
2015-Jan-26 08:33N 49°11' W 123°52'3 1.3
2015-Jan-26 06:32N 49°10' W 123°55'1 0.6
2015-Jan-26 04:33N 49°10' W 123°54'0 0.5
2015-Jan-26 03:33N 49°11' W 123°53'0 0.5
2015-Jan-26 02:32N 49°11' W 123°52'1 0.5
2015-Jan-26 01:28N 49°11' W 123°52'1 1.3
2015-Jan-26 00:33N 49°10' W 123°53'2 1.6
2015-Jan-25 23:32N 49°10' W 123°56'1 0.5
2015-Jan-25 21:33N 49°10' W 123°54'2 1.6
2015-Jan-25 20:32N 49°11' W 123°52'0 0.3
2015-Jan-25 19:32N 49°11' W 123°52'3 2.9
2015-Jan-25 18:32N 49°10' W 123°56'2 2.3
2015-Jan-25 17:32N 49°11' W 123°52'0 0.3
2015-Jan-25 16:18N 49°11' W 123°53'2 2.5
2015-Jan-25 15:31N 49°10' W 123°56'2 0.3
2015-Jan-25 07:21N 49°11' W 123°52'1 0.5
2015-Jan-25 06:18N 49°11' W 123°53'0 0.1
2015-Jan-25 04:33N 49°10' W 123°53'0 0.2
2015-Jan-25 03:31N 49°11' W 123°54'1 1.0
2015-Jan-25 02:30N 49°11' W 123°52'0 0.4
2015-Jan-25 01:32N 49°11' W 123°52'1 0.9
2015-Jan-25 00:31N 49°11' W 123°53'2 2.0
2015-Jan-24 23:33N 49°10' W 123°56'3 2.8
2015-Jan-24 22:31N 49°11' W 123°52'2 2.4
2015-Jan-24 21:32N 49°10' W 123°55'1 1.2
2015-Jan-24 20:28N 49°11' W 123°53'1 1.0
2015-Jan-24 19:26N 49°11' W 123°52'3 2.3
2015-Jan-24 18:11N 49°10' W 123°56'2 3.4
2015-Jan-24 17:31N 49°11' W 123°53'0 0.4
2015-Jan-24 16:19N 49°11' W 123°53'0 0.0
2015-Jan-24 15:15N 49°11' W 123°53'1 0.1
2015-Jan-24 07:26N 49°11' W 123°52'0 0.2
2015-Jan-24 06:24N 49°11' W 123°52'1 0.8
2015-Jan-24 04:32N 49°10' W 123°54'0 0.4
2015-Jan-24 03:33N 49°10' W 123°53'0 0.4
2015-Jan-24 02:25N 49°11' W 123°53'0 0.0
2015-Jan-24 01:18N 49°11' W 123°53'0 0.4
2015-Jan-24 00:30N 49°11' W 123°52'2 2.6
2015-Jan-23 23:33N 49°10' W 123°56'3 2.2
2015-Jan-23 22:14N 49°11' W 123°52'3 4.1
2015-Jan-23 21:32N 49°10' W 123°56'0 0.0
2015-Jan-23 20:24N 49°10' W 123°56'1 1.7
2015-Jan-23 19:33N 49°11' W 123°54'1 1.4
2015-Jan-23 18:30N 49°10' W 123°56'0 0.4
2015-Jan-23 17:33N 49°10' W 123°55'2 1.6
2015-Jan-23 16:29N 49°11' W 123°53'1 0.5
2015-Jan-23 15:21N 49°11' W 123°52'0 0.3
2015-Jan-23 14:14N 49°11' W 123°53'1 0.9
2015-Jan-23 13:32N 49°11' W 123°52'0 0.0
2015-Jan-23 11:29N 49°11' W 123°52'1 0.3
2015-Jan-23 07:16N 49°10' W 123°54'0 0.3
2015-Jan-23 06:17N 49°11' W 123°53'0 0.2
2015-Jan-23 04:31N 49°11' W 123°54'0 0.1
2015-Jan-23 03:31N 49°10' W 123°54'0 0.1
2015-Jan-23 02:22N 49°10' W 123°54'1 0.7
2015-Jan-23 01:20N 49°11' W 123°53'0 0.1
2015-Jan-23 00:32N 49°11' W 123°53'2 2.0
2015-Jan-22 23:29N 49°10' W 123°56'2 1.8
2015-Jan-22 22:06N 49°11' W 123°52'2 4.0
2015-Jan-22 21:30N 49°10' W 123°56'0 0.1
2015-Jan-22 20:19N 49°10' W 123°56'1 1.2
2015-Jan-22 19:34N 49°10' W 123°54'1 0.9
2015-Jan-22 18:33N 49°10' W 123°56'0 0.2
2015-Jan-22 17:32N 49°10' W 123°56'1 1.2
2015-Jan-22 16:33N 49°10' W 123°54'1 1.4
2015-Jan-22 15:33N 49°11' W 123°52'0 0.1
2015-Jan-22 14:22N 49°11' W 123°52'0 0.4
2015-Jan-22 13:33N 49°11' W 123°52'1 0.1
2015-Jan-22 07:19N 49°11' W 123°53'2 2.8
2015-Jan-22 06:33N 49°10' W 123°56'3 2.2
2015-Jan-22 05:14N 49°11' W 123°52'1 1.9
2015-Jan-22 04:34N 49°11' W 123°53'0 0.1
2015-Jan-22 03:34N 49°11' W 123°53'1 0.6
2015-Jan-22 02:30N 49°11' W 123°52'0 0.3
2015-Jan-22 01:23N 49°11' W 123°53'1 0.8
2015-Jan-22 00:33N 49°11' W 123°52'3 2.7
2015-Jan-21 23:32N 49°10' W 123°56'2 1.5
2015-Jan-21 22:04N 49°11' W 123°53'2 3.4
2015-Jan-21 21:34N 49°10' W 123°55'0 0.4
2015-Jan-21 20:21N 49°10' W 123°56'2 2.3
2015-Jan-21 19:33N 49°11' W 123°53'2 1.6
2015-Jan-21 18:26N 49°10' W 123°56'0 0.0
2015-Jan-21 17:16N 49°10' W 123°56'3 3.6
2015-Jan-21 16:32N 49°11' W 123°52'0 0.3
2015-Jan-21 15:31N 49°11' W 123°52'0 0.0
2015-Jan-21 14:23N 49°11' W 123°52'0 0.0
2015-Jan-21 13:27N 49°11' W 123°52'0 0.0
2015-Jan-21 11:15N 49°11' W 123°52'0 0.0
2015-Jan-21 10:21N 49°11' W 123°52'1 0.2
2015-Jan-21 07:21N 49°11' W 123°52'1 0.6
2015-Jan-21 06:28N 49°11' W 123°52'0 0.0
2015-Jan-21 05:33N 49°11' W 123°52'1 1.3
2015-Jan-21 04:33N 49°10' W 123°54'0 0.3
2015-Jan-21 03:34N 49°11' W 123°53'0 0.4
2015-Jan-21 02:29N 49°11' W 123°53'1 0.7
2015-Jan-21 01:32N 49°11' W 123°52'1 1.1
2015-Jan-21 00:33N 49°11' W 123°53'2 1.8
2015-Jan-20 23:30N 49°10' W 123°56'3 2.3
2015-Jan-20 22:13N 49°11' W 123°52'3 4.3
2015-Jan-20 21:33N 49°10' W 123°56'0 0.0
2015-Jan-20 20:30N 49°10' W 123°56'2 1.9
2015-Jan-20 19:33N 49°11' W 123°53'2 1.4
2015-Jan-20 18:28N 49°10' W 123°56'0 0.2
2015-Jan-20 17:23N 49°10' W 123°56'1 1.4
2015-Jan-20 16:33N 49°10' W 123°54'1 1.3
2015-Jan-20 15:31N 49°11' W 123°52'0 0.4
2015-Jan-20 14:24N 49°11' W 123°52'0 0.0
2015-Jan-20 13:28N 49°11' W 123°52'0 0.0
2015-Jan-20 07:30N 49°11' W 123°52'0 0.0
2015-Jan-20 06:33N 49°11' W 123°52'0 0.0
2015-Jan-20 05:33N 49°11' W 123°52'1 1.5
2015-Jan-20 04:32N 49°10' W 123°54'0 0.2
2015-Jan-20 03:32N 49°10' W 123°53'1 1.2
2015-Jan-20 02:33N 49°11' W 123°52'1 0.5
2015-Jan-20 01:23N 49°11' W 123°53'0 0.4
2015-Jan-20 00:34N 49°11' W 123°52'3 2.5
2015-Jan-19 23:32N 49°10' W 123°56'3 2.4
2015-Jan-19 22:18N 49°11' W 123°52'3 3.9
2015-Jan-19 21:33N 49°10' W 123°56'0 0.0
2015-Jan-19 20:32N 49°10' W 123°56'2 1.5
2015-Jan-19 19:33N 49°10' W 123°54'1 1.3
2015-Jan-19 18:27N 49°10' W 123°56'0 0.3
2015-Jan-19 17:33N 49°10' W 123°55'2 1.8
2015-Jan-19 16:31N 49°11' W 123°53'1 0.8
2015-Jan-19 15:33N 49°11' W 123°52'0 0.0
2015-Jan-19 14:23N 49°11' W 123°52'0 0.0
2015-Jan-19 13:31N 49°11' W 123°52'0 0.0
2015-Jan-19 10:24N 49°11' W 123°52'3 0.7
2015-Jan-19 06:33N 49°10' W 123°55'3 2.5
2015-Jan-19 05:33N 49°11' W 123°52'1 1.3
2015-Jan-19 04:33N 49°10' W 123°54'0 0.3
2015-Jan-19 03:33N 49°11' W 123°53'1 0.6
2015-Jan-19 02:31N 49°11' W 123°52'0 0.0
2015-Jan-19 01:20N 49°11' W 123°52'1 1.0
2015-Jan-19 00:33N 49°10' W 123°53'2 1.5
2015-Jan-18 23:31N 49°10' W 123°56'1 0.6
2015-Jan-18 21:33N 49°10' W 123°54'1 1.4
2015-Jan-18 20:33N 49°11' W 123°52'0 0.3
2015-Jan-18 19:30N 49°11' W 123°52'3 2.6
2015-Jan-18 18:24N 49°10' W 123°56'2 2.4
2015-Jan-18 17:31N 49°11' W 123°53'1 0.8
2015-Jan-18 16:28N 49°11' W 123°52'3 3.0
2015-Jan-18 15:30N 49°10' W 123°56'3 0.3
2015-Jan-18 07:24N 49°11' W 123°52'1 0.6
2015-Jan-18 06:20N 49°11' W 123°53'0 0.2
2015-Jan-18 04:33N 49°11' W 123°53'0 0.1
2015-Jan-18 03:31N 49°11' W 123°53'1 0.7
2015-Jan-18 02:27N 49°11' W 123°52'0 0.5
2015-Jan-18 01:30N 49°11' W 123°52'1 1.1
2015-Jan-18 00:33N 49°10' W 123°53'2 1.8
2015-Jan-17 23:31N 49°10' W 123°56'3 2.2
2015-Jan-17 22:12N 49°11' W 123°52'2 2.9
2015-Jan-17 21:33N 49°10' W 123°54'1 1.2
2015-Jan-17 20:33N 49°11' W 123°53'1 0.5
2015-Jan-17 19:30N 49°11' W 123°52'3 2.9
2015-Jan-17 18:32N 49°10' W 123°56'2 2.1
2015-Jan-17 17:33N 49°11' W 123°53'1 0.7
2015-Jan-17 16:29N 49°11' W 123°52'1 0.5
2015-Jan-17 15:20N 49°11' W 123°53'1 0.7
2015-Jan-17 14:33N 49°11' W 123°52'0 0.1
2015-Jan-17 12:03N 49°11' W 123°52'  

Dump ship's entire track history